sensor_id;sensor_type;location;lat;lon;timestamp;temperature;humidity
1570;DHT22;778;50.120;8.698;2024-01-10T00:02:19;-4.90;99.80
1570;DHT22;778;50.120;8.698;2024-01-10T00:04:48;-4.90;99.90
1570;DHT22;778;50.120;8.698;2024-01-10T00:07:17;-4.90;99.90
1570;DHT22;778;50.120;8.698;2024-01-10T00:09:45;-4.80;99.90
1570;DHT22;778;50.120;8.698;2024-01-10T00:12:15;-4.90;99.80
1570;DHT22;778;50.120;8.698;2024-01-10T00:14:44;-4.90;99.90
1570;DHT22;778;50.120;8.698;2024-01-10T00:17:12;-4.90;99.90
1570;DHT22;778;50.120;8.698;2024-01-10T00:19:41;-4.90;99.90
1570;DHT22;778;50.120;8.698;2024-01-10T00:22:09;-4.90;99.90
1570;DHT22;778;50.120;8.698;2024-01-10T00:24:38;-5.00;99.90
1570;DHT22;778;50.120;8.698;2024-01-10T00:27:06;-5.00;99.90
1570;DHT22;778;50.120;8.698;2024-01-10T00:29:36;-5.00;99.90
1570;DHT22;778;50.120;8.698;2024-01-10T00:32:06;-5.00;99.90
1570;DHT22;778;50.120;8.698;2024-01-10T00:34:35;-5.00;99.90
1570;DHT22;778;50.120;8.698;2024-01-10T00:37:03;-5.00;99.90
1570;DHT22;778;50.120;8.698;2024-01-10T00:39:32;-5.00;99.90
1570;DHT22;778;50.120;8.698;2024-01-10T00:42:00;-5.00;99.90
1570;DHT22;778;50.120;8.698;2024-01-10T00:44:29;-5.00;99.90
1570;DHT22;778;50.120;8.698;2024-01-10T00:46:59;-5.00;99.90
1570;DHT22;778;50.120;8.698;2024-01-10T00:49:27;-5.00;99.90
1570;DHT22;778;50.120;8.698;2024-01-10T00:51:56;-5.00;99.90
1570;DHT22;778;50.120;8.698;2024-01-10T00:54:24;-5.00;99.90
1570;DHT22;778;50.120;8.698;2024-01-10T00:56:53;-5.10;99.90
1570;DHT22;778;50.120;8.698;2024-01-10T00:59:21;-5.10;99.90
1570;DHT22;778;50.120;8.698;2024-01-10T01:01:50;-5.10;99.90
1570;DHT22;778;50.120;8.698;2024-01-10T01:04:21;-5.10;99.90
1570;DHT22;778;50.120;8.698;2024-01-10T01:06:49;-5.10;99.90
1570;DHT22;778;50.120;8.698;2024-01-10T01:09:18;-5.00;99.90
1570;DHT22;778;50.120;8.698;2024-01-10T01:11:46;-5.00;99.90
1570;DHT22;778;50.120;8.698;2024-01-10T01:14:15;-5.00;99.90
1570;DHT22;778;50.120;8.698;2024-01-10T01:16:44;-5.10;99.90
1570;DHT22;778;50.120;8.698;2024-01-10T01:19:12;-5.10;99.90
1570;DHT22;778;50.120;8.698;2024-01-10T01:21:42;-5.20;99.90
1570;DHT22;778;50.120;8.698;2024-01-10T01:24:11;-5.20;99.90
1570;DHT22;778;50.120;8.698;2024-01-10T01:26:39;-5.20;99.90
1570;DHT22;778;50.120;8.698;2024-01-10T01:29:08;-5.20;99.90
1570;DHT22;778;50.120;8.698;2024-01-10T01:31:37;-5.20;99.90
1570;DHT22;778;50.120;8.698;2024-01-10T01:34:05;-5.20;99.90
1570;DHT22;778;50.120;8.698;2024-01-10T01:36:34;-5.20;99.90
1570;DHT22;778;50.120;8.698;2024-01-10T01:39:04;-5.20;99.90
1570;DHT22;778;50.120;8.698;2024-01-10T01:41:32;-5.20;99.90
1570;DHT22;778;50.120;8.698;2024-01-10T01:44:01;-5.20;99.90
1570;DHT22;778;50.120;8.698;2024-01-10T01:46:30;-5.20;99.90
1570;DHT22;778;50.120;8.698;2024-01-10T01:49:00;-5.20;99.90
1570;DHT22;778;50.120;8.698;2024-01-10T01:51:29;-5.20;99.90
1570;DHT22;778;50.120;8.698;2024-01-10T01:53:59;-5.20;99.90
1570;DHT22;778;50.120;8.698;2024-01-10T01:56:29;-5.20;99.90
1570;DHT22;778;50.120;8.698;2024-01-10T01:58:57;-5.20;99.90
1570;DHT22;778;50.120;8.698;2024-01-10T02:01:26;-5.20;99.90
1570;DHT22;778;50.120;8.698;2024-01-10T02:03:55;-5.20;99.90
1570;DHT22;778;50.120;8.698;2024-01-10T02:06:24;-5.20;99.90
1570;DHT22;778;50.120;8.698;2024-01-10T02:08:52;-5.20;99.90
1570;DHT22;778;50.120;8.698;2024-01-10T02:11:21;-5.30;99.90
1570;DHT22;778;50.120;8.698;2024-01-10T02:13:51;-5.30;99.90
1570;DHT22;778;50.120;8.698;2024-01-10T02:16:21;-5.30;99.90
1570;DHT22;778;50.120;8.698;2024-01-10T02:18:51;-5.30;99.90
1570;DHT22;778;50.120;8.698;2024-01-10T02:21:20;-5.20;99.90
1570;DHT22;778;50.120;8.698;2024-01-10T02:23:49;-5.20;99.90
1570;DHT22;778;50.120;8.698;2024-01-10T02:26:19;-5.30;99.90
1570;DHT22;778;50.120;8.698;2024-01-10T02:28:48;-5.30;99.90
1570;DHT22;778;50.120;8.698;2024-01-10T02:31:17;-5.30;99.90
1570;DHT22;778;50.120;8.698;2024-01-10T02:33:46;-5.30;99.90
1570;DHT22;778;50.120;8.698;2024-01-10T02:36:14;-5.30;99.90
1570;DHT22;778;50.120;8.698;2024-01-10T02:38:43;-5.20;99.90
1570;DHT22;778;50.120;8.698;2024-01-10T02:41:11;-5.20;99.90
1570;DHT22;778;50.120;8.698;2024-01-10T02:43:41;-5.20;99.90
1570;DHT22;778;50.120;8.698;2024-01-10T02:46:10;-5.20;99.90
1570;DHT22;778;50.120;8.698;2024-01-10T02:48:38;-5.20;99.90
1570;DHT22;778;50.120;8.698;2024-01-10T02:51:07;-5.20;99.90
1570;DHT22;778;50.120;8.698;2024-01-10T02:53:35;-5.20;99.90
1570;DHT22;778;50.120;8.698;2024-01-10T02:56:04;-5.20;99.90
1570;DHT22;778;50.120;8.698;2024-01-10T02:58:33;-5.20;99.90
1570;DHT22;778;50.120;8.698;2024-01-10T03:01:04;-5.20;99.90
1570;DHT22;778;50.120;8.698;2024-01-10T03:03:32;-5.20;99.90
1570;DHT22;778;50.120;8.698;2024-01-10T03:06:00;-5.30;99.90
1570;DHT22;778;50.120;8.698;2024-01-10T03:08:29;-5.20;99.90
1570;DHT22;778;50.120;8.698;2024-01-10T03:10:57;-5.30;99.90
1570;DHT22;778;50.120;8.698;2024-01-10T03:13:26;-5.30;99.90
1570;DHT22;778;50.120;8.698;2024-01-10T03:15:54;-5.30;99.90
1570;DHT22;778;50.120;8.698;2024-01-10T03:18:24;-5.30;99.90
1570;DHT22;778;50.120;8.698;2024-01-10T03:20:53;-5.30;99.90
1570;DHT22;778;50.120;8.698;2024-01-10T03:23:22;-5.30;99.90
1570;DHT22;778;50.120;8.698;2024-01-10T03:25:51;-5.30;99.90
1570;DHT22;778;50.120;8.698;2024-01-10T03:28:19;-5.20;99.90
1570;DHT22;778;50.120;8.698;2024-01-10T03:30:48;-5.20;99.90
1570;DHT22;778;50.120;8.698;2024-01-10T03:33:16;-5.20;99.90
1570;DHT22;778;50.120;8.698;2024-01-10T03:35:46;-5.20;99.90
1570;DHT22;778;50.120;8.698;2024-01-10T03:38:15;-5.20;99.90
1570;DHT22;778;50.120;8.698;2024-01-10T03:40:43;-5.20;99.90
1570;DHT22;778;50.120;8.698;2024-01-10T03:43:12;-5.20;99.90
1570;DHT22;778;50.120;8.698;2024-01-10T03:45:40;-5.20;99.90
1570;DHT22;778;50.120;8.698;2024-01-10T03:48:09;-5.20;99.90
1570;DHT22;778;50.120;8.698;2024-01-10T03:50:37;-5.20;99.90
1570;DHT22;778;50.120;8.698;2024-01-10T03:53:07;-5.30;99.90
1570;DHT22;778;50.120;8.698;2024-01-10T03:55:36;-5.30;99.90
1570;DHT22;778;50.120;8.698;2024-01-10T03:58:05;-5.20;99.90
1570;DHT22;778;50.120;8.698;2024-01-10T04:00:33;-5.20;99.90
1570;DHT22;778;50.120;8.698;2024-01-10T04:03:02;-5.30;99.90
1570;DHT22;778;50.120;8.698;2024-01-10T04:05:31;-5.30;99.90
1570;DHT22;778;50.120;8.698;2024-01-10T04:07:59;-5.30;99.90
1570;DHT22;778;50.120;8.698;2024-01-10T04:10:30;-5.20;99.90
1570;DHT22;778;50.120;8.698;2024-01-10T04:12:58;-5.20;99.90
1570;DHT22;778;50.120;8.698;2024-01-10T04:15:26;-5.20;99.90
1570;DHT22;778;50.120;8.698;2024-01-10T04:17:55;-5.30;99.90
1570;DHT22;778;50.120;8.698;2024-01-10T04:20:23;-5.30;99.90
1570;DHT22;778;50.120;8.698;2024-01-10T04:22:52;-5.30;99.90
1570;DHT22;778;50.120;8.698;2024-01-10T04:25:20;-5.30;99.90
1570;DHT22;778;50.120;8.698;2024-01-10T04:27:50;-5.30;99.90
1570;DHT22;778;50.120;8.698;2024-01-10T04:30:18;-5.30;99.90
1570;DHT22;778;50.120;8.698;2024-01-10T04:32:47;-5.40;99.90
1570;DHT22;778;50.120;8.698;2024-01-10T04:35:16;-5.40;99.90
1570;DHT22;778;50.120;8.698;2024-01-10T04:37:44;-5.40;99.90
1570;DHT22;778;50.120;8.698;2024-01-10T04:40:13;-5.40;99.90
1570;DHT22;778;50.120;8.698;2024-01-10T04:42:41;-5.40;99.90
1570;DHT22;778;50.120;8.698;2024-01-10T04:45:11;-5.40;99.90
1570;DHT22;778;50.120;8.698;2024-01-10T04:47:40;-5.40;99.90
1570;DHT22;778;50.120;8.698;2024-01-10T04:50:09;-5.40;99.90
1570;DHT22;778;50.120;8.698;2024-01-10T04:52:40;-5.40;99.90
1570;DHT22;778;50.120;8.698;2024-01-10T04:55:09;-5.40;99.90
1570;DHT22;778;50.120;8.698;2024-01-10T04:57:38;-5.40;99.90
1570;DHT22;778;50.120;8.698;2024-01-10T05:00:07;-5.40;99.90
1570;DHT22;778;50.120;8.698;2024-01-10T05:02:38;-5.30;99.90
1570;DHT22;778;50.120;8.698;2024-01-10T05:05:07;-5.30;99.90
1570;DHT22;778;50.120;8.698;2024-01-10T05:07:36;-5.20;99.90
1570;DHT22;778;50.120;8.698;2024-01-10T05:10:05;-5.20;99.90
1570;DHT22;778;50.120;8.698;2024-01-10T05:12:34;-5.20;99.90
1570;DHT22;778;50.120;8.698;2024-01-10T05:15:03;-5.20;99.90
1570;DHT22;778;50.120;8.698;2024-01-10T05:17:32;-5.20;99.90
1570;DHT22;778;50.120;8.698;2024-01-10T05:20:02;-5.20;99.90
1570;DHT22;778;50.120;8.698;2024-01-10T05:22:31;-4.60;99.90
1570;DHT22;778;50.120;8.698;2024-01-10T05:24:59;-4.30;99.90
1570;DHT22;778;50.120;8.698;2024-01-10T05:27:27;-4.10;99.90
1570;DHT22;778;50.120;8.698;2024-01-10T05:29:56;-3.90;99.90
1570;DHT22;778;50.120;8.698;2024-01-10T05:32:27;-3.70;99.90
1570;DHT22;778;50.120;8.698;2024-01-10T05:34:55;-3.80;99.90
1570;DHT22;778;50.120;8.698;2024-01-10T05:37:25;-4.20;99.90
1570;DHT22;778;50.120;8.698;2024-01-10T05:39:54;-4.40;99.90
1570;DHT22;778;50.120;8.698;2024-01-10T05:42:22;-4.70;99.90
1570;DHT22;778;50.120;8.698;2024-01-10T05:44:50;-4.80;99.90
1570;DHT22;778;50.120;8.698;2024-01-10T05:47:19;-4.90;99.90
1570;DHT22;778;50.120;8.698;2024-01-10T05:49:47;-5.00;99.90
1570;DHT22;778;50.120;8.698;2024-01-10T05:52:16;-5.00;99.90
1570;DHT22;778;50.120;8.698;2024-01-10T05:54:46;-5.10;99.90
1570;DHT22;778;50.120;8.698;2024-01-10T05:57:15;-5.20;99.90
1570;DHT22;778;50.120;8.698;2024-01-10T05:59:43;-5.20;99.90
1570;DHT22;778;50.120;8.698;2024-01-10T06:02:12;-5.20;99.90
1570;DHT22;778;50.120;8.698;2024-01-10T06:04:43;-5.20;99.90
1570;DHT22;778;50.120;8.698;2024-01-10T06:07:12;-5.20;99.90
1570;DHT22;778;50.120;8.698;2024-01-10T06:09:41;-5.20;99.90
1570;DHT22;778;50.120;8.698;2024-01-10T06:12:12;-5.20;99.90
1570;DHT22;778;50.120;8.698;2024-01-10T06:14:40;-5.30;99.90
1570;DHT22;778;50.120;8.698;2024-01-10T06:17:09;-5.20;99.90
1570;DHT22;778;50.120;8.698;2024-01-10T06:19:37;-5.20;99.90
1570;DHT22;778;50.120;8.698;2024-01-10T06:22:06;-5.20;99.90
1570;DHT22;778;50.120;8.698;2024-01-10T06:24:34;-5.20;99.90
1570;DHT22;778;50.120;8.698;2024-01-10T06:27:03;-5.20;99.90
1570;DHT22;778;50.120;8.698;2024-01-10T06:29:34;-5.20;99.90
1570;DHT22;778;50.120;8.698;2024-01-10T06:32:03;-5.20;99.90
1570;DHT22;778;50.120;8.698;2024-01-10T06:34:33;-5.30;99.90
1570;DHT22;778;50.120;8.698;2024-01-10T06:37:02;-5.30;99.90
1570;DHT22;778;50.120;8.698;2024-01-10T06:39:30;-5.30;99.90
1570;DHT22;778;50.120;8.698;2024-01-10T06:41:59;-5.30;99.90
1570;DHT22;778;50.120;8.698;2024-01-10T06:44:27;-5.20;99.90
1570;DHT22;778;50.120;8.698;2024-01-10T06:46:57;-5.20;99.90
1570;DHT22;778;50.120;8.698;2024-01-10T06:49:26;-5.20;99.90
1570;DHT22;778;50.120;8.698;2024-01-10T06:51:55;-5.20;99.90
1570;DHT22;778;50.120;8.698;2024-01-10T06:54:23;-5.20;99.90
1570;DHT22;778;50.120;8.698;2024-01-10T06:56:52;-5.10;99.90
1570;DHT22;778;50.120;8.698;2024-01-10T06:59:20;-5.10;99.90
1570;DHT22;778;50.120;8.698;2024-01-10T07:01:51;-5.10;99.90
1570;DHT22;778;50.120;8.698;2024-01-10T07:04:22;-5.10;99.90
1570;DHT22;778;50.120;8.698;2024-01-10T07:06:51;-5.10;99.90
1570;DHT22;778;50.120;8.698;2024-01-10T07:09:20;-5.10;99.90
1570;DHT22;778;50.120;8.698;2024-01-10T07:11:48;-5.00;99.90
1570;DHT22;778;50.120;8.698;2024-01-10T07:14:17;-5.00;99.90
1570;DHT22;778;50.120;8.698;2024-01-10T07:16:45;-5.10;99.90
1570;DHT22;778;50.120;8.698;2024-01-10T07:19:14;-5.10;99.90
1570;DHT22;778;50.120;8.698;2024-01-10T07:21:44;-5.10;99.90
1570;DHT22;778;50.120;8.698;2024-01-10T07:24:13;-5.10;99.90
1570;DHT22;778;50.120;8.698;2024-01-10T07:26:41;-5.10;99.90
1570;DHT22;778;50.120;8.698;2024-01-10T07:29:10;-5.10;99.90
1570;DHT22;778;50.120;8.698;2024-01-10T07:31:38;-5.10;99.90
1570;DHT22;778;50.120;8.698;2024-01-10T07:34:07;-5.00;99.90
1570;DHT22;778;50.120;8.698;2024-01-10T07:36:41;-5.00;99.90
1570;DHT22;778;50.120;8.698;2024-01-10T07:39:11;-5.00;99.90
1570;DHT22;778;50.120;8.698;2024-01-10T07:41:42;-5.00;99.90
1570;DHT22;778;50.120;8.698;2024-01-10T07:44:11;-4.90;99.90
1570;DHT22;778;50.120;8.698;2024-01-10T07:46:40;-4.90;99.90
1570;DHT22;778;50.120;8.698;2024-01-10T07:49:08;-4.90;99.90
1570;DHT22;778;50.120;8.698;2024-01-10T07:51:37;-4.80;99.90
1570;DHT22;778;50.120;8.698;2024-01-10T07:54:07;-4.80;99.90
1570;DHT22;778;50.120;8.698;2024-01-10T07:56:35;-4.80;99.90
1570;DHT22;778;50.120;8.698;2024-01-10T07:59:04;-4.80;99.90
1570;DHT22;778;50.120;8.698;2024-01-10T08:01:32;-4.80;99.90
1570;DHT22;778;50.120;8.698;2024-01-10T08:04:01;-4.60;99.90
1570;DHT22;778;50.120;8.698;2024-01-10T08:06:29;-4.70;99.90
1570;DHT22;778;50.120;8.698;2024-01-10T08:08:59;-4.70;99.90
1570;DHT22;778;50.120;8.698;2024-01-10T08:11:32;-4.60;99.90
1570;DHT22;778;50.120;8.698;2024-01-10T08:14:01;-4.70;99.90
1570;DHT22;778;50.120;8.698;2024-01-10T08:16:30;-4.60;99.90
1570;DHT22;778;50.120;8.698;2024-01-10T08:18:59;-4.60;99.90
1570;DHT22;778;50.120;8.698;2024-01-10T08:21:28;-4.60;99.90
1570;DHT22;778;50.120;8.698;2024-01-10T08:23:56;-4.50;99.90
1570;DHT22;778;50.120;8.698;2024-01-10T08:26:24;-4.50;99.90
1570;DHT22;778;50.120;8.698;2024-01-10T08:28:55;-4.40;99.90
1570;DHT22;778;50.120;8.698;2024-01-10T08:31:24;-4.30;99.90
1570;DHT22;778;50.120;8.698;2024-01-10T08:33:54;-4.30;99.90
1570;DHT22;778;50.120;8.698;2024-01-10T08:36:23;-4.30;99.90
1570;DHT22;778;50.120;8.698;2024-01-10T08:38:52;-4.30;99.90
1570;DHT22;778;50.120;8.698;2024-01-10T08:41:20;-4.10;99.90
1570;DHT22;778;50.120;8.698;2024-01-10T08:43:49;-4.30;99.90
1570;DHT22;778;50.120;8.698;2024-01-10T08:46:19;-4.10;99.90
1570;DHT22;778;50.120;8.698;2024-01-10T08:48:48;-4.20;99.90
1570;DHT22;778;50.120;8.698;2024-01-10T08:51:17;-4.10;99.90
1570;DHT22;778;50.120;8.698;2024-01-10T08:53:45;-4.10;99.90
1570;DHT22;778;50.120;8.698;2024-01-10T08:56:15;-4.00;99.90
1570;DHT22;778;50.120;8.698;2024-01-10T08:58:44;-4.00;99.90
1570;DHT22;778;50.120;8.698;2024-01-10T09:01:12;-4.00;99.90
1570;DHT22;778;50.120;8.698;2024-01-10T09:03:42;-3.90;99.90
1570;DHT22;778;50.120;8.698;2024-01-10T09:06:11;-3.90;99.90
1570;DHT22;778;50.120;8.698;2024-01-10T09:08:40;-3.90;99.90
1570;DHT22;778;50.120;8.698;2024-01-10T09:11:08;-3.80;99.90
1570;DHT22;778;50.120;8.698;2024-01-10T09:13:37;-3.80;99.90
1570;DHT22;778;50.120;8.698;2024-01-10T09:16:07;-3.80;99.90
1570;DHT22;778;50.120;8.698;2024-01-10T09:18:36;-3.80;99.90
1570;DHT22;778;50.120;8.698;2024-01-10T09:21:07;-3.80;99.90
1570;DHT22;778;50.120;8.698;2024-01-10T09:23:35;-3.80;99.90
1570;DHT22;778;50.120;8.698;2024-01-10T09:26:04;-3.70;99.90
1570;DHT22;778;50.120;8.698;2024-01-10T09:28:33;-3.70;99.90
1570;DHT22;778;50.120;8.698;2024-01-10T09:31:01;-3.70;99.90
1570;DHT22;778;50.120;8.698;2024-01-10T09:33:30;-3.60;99.90
1570;DHT22;778;50.120;8.698;2024-01-10T09:35:59;-3.60;99.90
1570;DHT22;778;50.120;8.698;2024-01-10T09:38:29;-3.60;99.90
1570;DHT22;778;50.120;8.698;2024-01-10T09:41:00;-3.60;99.90
1570;DHT22;778;50.120;8.698;2024-01-10T09:43:31;-3.60;99.90
1570;DHT22;778;50.120;8.698;2024-01-10T09:46:01;-3.50;99.90
1570;DHT22;778;50.120;8.698;2024-01-10T09:48:30;-3.50;99.90
1570;DHT22;778;50.120;8.698;2024-01-10T09:51:00;-3.50;99.90
1570;DHT22;778;50.120;8.698;2024-01-10T09:53:31;-3.50;99.90
1570;DHT22;778;50.120;8.698;2024-01-10T09:56:04;-3.50;99.90
1570;DHT22;778;50.120;8.698;2024-01-10T09:58:35;-3.50;99.90
1570;DHT22;778;50.120;8.698;2024-01-10T10:01:06;-3.40;99.90
1570;DHT22;778;50.120;8.698;2024-01-10T10:03:37;-3.40;99.90
1570;DHT22;778;50.120;8.698;2024-01-10T10:06:07;-3.40;99.90
1570;DHT22;778;50.120;8.698;2024-01-10T10:08:41;-3.40;99.90
1570;DHT22;778;50.120;8.698;2024-01-10T10:11:12;-3.30;99.90
1570;DHT22;778;50.120;8.698;2024-01-10T10:13:41;-3.30;99.90
1570;DHT22;778;50.120;8.698;2024-01-10T10:16:10;-3.20;99.90
1570;DHT22;778;50.120;8.698;2024-01-10T10:18:40;-3.30;99.90
1570;DHT22;778;50.120;8.698;2024-01-10T10:21:16;-3.30;99.90
1570;DHT22;778;50.120;8.698;2024-01-10T10:23:58;-3.40;99.90
1570;DHT22;778;50.120;8.698;2024-01-10T10:26:28;-3.40;99.90
1570;DHT22;778;50.120;8.698;2024-01-10T10:28:57;-3.40;99.90
1570;DHT22;778;50.120;8.698;2024-01-10T10:31:26;-3.30;99.90
1570;DHT22;778;50.120;8.698;2024-01-10T10:33:56;-3.30;99.90
1570;DHT22;778;50.120;8.698;2024-01-10T10:36:25;-3.20;99.90
1570;DHT22;778;50.120;8.698;2024-01-10T10:38:55;-3.30;99.90
1570;DHT22;778;50.120;8.698;2024-01-10T10:41:25;-3.20;99.90
1570;DHT22;778;50.120;8.698;2024-01-10T10:43:55;-3.20;99.90
1570;DHT22;778;50.120;8.698;2024-01-10T10:46:27;-3.10;99.90
1570;DHT22;778;50.120;8.698;2024-01-10T10:48:59;-3.10;99.90
1570;DHT22;778;50.120;8.698;2024-01-10T10:51:33;-3.00;99.90
1570;DHT22;778;50.120;8.698;2024-01-10T10:54:06;-2.90;99.90
1570;DHT22;778;50.120;8.698;2024-01-10T10:56:36;-2.90;99.90
1570;DHT22;778;50.120;8.698;2024-01-10T10:59:05;-2.80;99.90
1570;DHT22;778;50.120;8.698;2024-01-10T11:01:36;-2.70;99.90
1570;DHT22;778;50.120;8.698;2024-01-10T11:04:05;-2.70;99.90
1570;DHT22;778;50.120;8.698;2024-01-10T11:06:34;-2.60;99.90
1570;DHT22;778;50.120;8.698;2024-01-10T11:09:06;-2.50;99.90
1570;DHT22;778;50.120;8.698;2024-01-10T11:11:51;-2.50;99.90
1570;DHT22;778;50.120;8.698;2024-01-10T11:14:43;-2.40;99.90
1570;DHT22;778;50.120;8.698;2024-01-10T11:18:02;-2.30;99.90
1570;DHT22;778;50.120;8.698;2024-01-10T11:21:00;-2.30;99.90
1570;DHT22;778;50.120;8.698;2024-01-10T11:23:39;-2.40;99.90
1570;DHT22;778;50.120;8.698;2024-01-10T11:26:14;-2.40;99.90
1570;DHT22;778;50.120;8.698;2024-01-10T11:28:43;-2.40;99.90
1570;DHT22;778;50.120;8.698;2024-01-10T11:31:13;-2.30;99.90
1570;DHT22;778;50.120;8.698;2024-01-10T11:33:43;-2.30;99.90
1570;DHT22;778;50.120;8.698;2024-01-10T11:36:13;-2.20;99.90
1570;DHT22;778;50.120;8.698;2024-01-10T11:38:58;-2.00;99.90
1570;DHT22;778;50.120;8.698;2024-01-10T11:41:32;-1.80;99.90
1570;DHT22;778;50.120;8.698;2024-01-10T11:47:17;-1.90;99.90
1570;DHT22;778;50.120;8.698;2024-01-10T11:49:55;-1.90;99.90
1570;DHT22;778;50.120;8.698;2024-01-10T11:52:32;-1.90;99.90
1570;DHT22;778;50.120;8.698;2024-01-10T11:55:01;-1.80;99.90
1570;DHT22;778;50.120;8.698;2024-01-10T11:57:33;-1.80;99.90
1570;DHT22;778;50.120;8.698;2024-01-10T12:00:06;-1.70;99.90
1570;DHT22;778;50.120;8.698;2024-01-10T12:02:36;-1.70;99.90
1570;DHT22;778;50.120;8.698;2024-01-10T12:05:07;-1.70;99.90
1570;DHT22;778;50.120;8.698;2024-01-10T12:07:35;-1.70;99.90
1570;DHT22;778;50.120;8.698;2024-01-10T12:10:05;-1.70;99.90
1570;DHT22;778;50.120;8.698;2024-01-10T12:12:37;-1.70;99.90
1570;DHT22;778;50.120;8.698;2024-01-10T12:15:06;-1.70;99.90
1570;DHT22;778;50.120;8.698;2024-01-10T12:17:39;-1.70;99.90
1570;DHT22;778;50.120;8.698;2024-01-10T12:20:08;-1.70;99.90
1570;DHT22;778;50.120;8.698;2024-01-10T12:22:37;-1.60;99.90
1570;DHT22;778;50.120;8.698;2024-01-10T12:25:06;-1.30;99.90
1570;DHT22;778;50.120;8.698;2024-01-10T12:27:37;-1.40;99.90
1570;DHT22;778;50.120;8.698;2024-01-10T12:30:06;-1.30;99.90
1570;DHT22;778;50.120;8.698;2024-01-10T12:32:35;-1.40;99.90
1570;DHT22;778;50.120;8.698;2024-01-10T12:35:05;-1.30;99.90
1570;DHT22;778;50.120;8.698;2024-01-10T12:37:34;-1.30;99.90
1570;DHT22;778;50.120;8.698;2024-01-10T12:40:06;-1.30;99.90
1570;DHT22;778;50.120;8.698;2024-01-10T12:42:38;-1.10;99.90
1570;DHT22;778;50.120;8.698;2024-01-10T12:45:20;-0.90;99.90
1570;DHT22;778;50.120;8.698;2024-01-10T12:47:49;-0.70;99.90
1570;DHT22;778;50.120;8.698;2024-01-10T12:50:18;-0.60;99.90
1570;DHT22;778;50.120;8.698;2024-01-10T12:52:46;-0.50;99.90
1570;DHT22;778;50.120;8.698;2024-01-10T12:55:15;-0.30;99.90
1570;DHT22;778;50.120;8.698;2024-01-10T12:57:45;-0.10;99.90
1570;DHT22;778;50.120;8.698;2024-01-10T13:00:14;0.10;99.90
1570;DHT22;778;50.120;8.698;2024-01-10T13:02:43;0.20;99.90
1570;DHT22;778;50.120;8.698;2024-01-10T13:05:13;0.20;99.90
1570;DHT22;778;50.120;8.698;2024-01-10T13:07:42;0.40;99.90
1570;DHT22;778;50.120;8.698;2024-01-10T13:10:10;0.40;99.60
1570;DHT22;778;50.120;8.698;2024-01-10T13:12:39;0.40;99.60
1570;DHT22;778;50.120;8.698;2024-01-10T13:15:09;0.40;99.30
1570;DHT22;778;50.120;8.698;2024-01-10T13:17:37;0.50;99.40
1570;DHT22;778;50.120;8.698;2024-01-10T13:20:07;0.50;99.30
1570;DHT22;778;50.120;8.698;2024-01-10T13:22:37;0.50;99.30
1570;DHT22;778;50.120;8.698;2024-01-10T13:25:07;0.60;99.40
1570;DHT22;778;50.120;8.698;2024-01-10T13:27:35;0.50;99.30
1570;DHT22;778;50.120;8.698;2024-01-10T13:30:05;0.50;99.50
1570;DHT22;778;50.120;8.698;2024-01-10T13:32:35;0.50;99.50
1570;DHT22;778;50.120;8.698;2024-01-10T13:35:05;0.50;99.60
1570;DHT22;778;50.120;8.698;2024-01-10T13:37:33;0.60;99.50
1570;DHT22;778;50.120;8.698;2024-01-10T13:40:02;0.60;99.50
1570;DHT22;778;50.120;8.698;2024-01-10T13:42:34;0.50;99.40
1570;DHT22;778;50.120;8.698;2024-01-10T13:45:02;0.40;99.30
1570;DHT22;778;50.120;8.698;2024-01-10T13:47:32;0.40;99.40
1570;DHT22;778;50.120;8.698;2024-01-10T13:50:02;0.40;99.60
1570;DHT22;778;50.120;8.698;2024-01-10T13:52:32;0.40;99.60
1570;DHT22;778;50.120;8.698;2024-01-10T13:55:01;0.40;99.60
1570;DHT22;778;50.120;8.698;2024-01-10T13:57:32;0.50;99.60
1570;DHT22;778;50.120;8.698;2024-01-10T14:00:01;0.40;99.40
1570;DHT22;778;50.120;8.698;2024-01-10T14:02:37;0.50;99.50
1570;DHT22;778;50.120;8.698;2024-01-10T14:05:08;0.40;99.20
1570;DHT22;778;50.120;8.698;2024-01-10T14:07:37;0.40;99.20
1570;DHT22;778;50.120;8.698;2024-01-10T14:10:06;0.40;99.30
1570;DHT22;778;50.120;8.698;2024-01-10T14:12:37;0.30;99.30
1570;DHT22;778;50.120;8.698;2024-01-10T14:15:06;0.30;99.60
1570;DHT22;778;50.120;8.698;2024-01-10T14:17:36;0.20;99.40
1570;DHT22;778;50.120;8.698;2024-01-10T14:20:07;0.10;99.40
1570;DHT22;778;50.120;8.698;2024-01-10T14:22:36;0.20;99.60
1570;DHT22;778;50.120;8.698;2024-01-10T14:25:05;0.10;99.80
1570;DHT22;778;50.120;8.698;2024-01-10T14:27:36;0.00;99.90
1570;DHT22;778;50.120;8.698;2024-01-10T14:30:07;0.00;99.90
1570;DHT22;778;50.120;8.698;2024-01-10T14:32:36;0.00;99.90
1570;DHT22;778;50.120;8.698;2024-01-10T14:35:07;0.10;99.90
1570;DHT22;778;50.120;8.698;2024-01-10T14:37:36;-0.10;99.90
1570;DHT22;778;50.120;8.698;2024-01-10T14:40:05;-0.10;99.90
1570;DHT22;778;50.120;8.698;2024-01-10T14:42:34;-0.10;99.90
1570;DHT22;778;50.120;8.698;2024-01-10T14:45:03;-0.10;99.90
1570;DHT22;778;50.120;8.698;2024-01-10T14:47:32;-0.10;99.90
1570;DHT22;778;50.120;8.698;2024-01-10T14:50:02;-0.10;99.90
1570;DHT22;778;50.120;8.698;2024-01-10T14:52:33;-0.20;99.90
1570;DHT22;778;50.120;8.698;2024-01-10T14:55:01;-0.20;99.90
1570;DHT22;778;50.120;8.698;2024-01-10T14:57:32;-0.20;99.90
1570;DHT22;778;50.120;8.698;2024-01-10T15:00:01;-0.30;99.90
1570;DHT22;778;50.120;8.698;2024-01-10T15:02:32;-0.30;99.90
1570;DHT22;778;50.120;8.698;2024-01-10T15:05:05;-0.30;99.90
1570;DHT22;778;50.120;8.698;2024-01-10T15:07:36;-0.30;99.90
1570;DHT22;778;50.120;8.698;2024-01-10T15:10:05;-0.30;99.90
1570;DHT22;778;50.120;8.698;2024-01-10T15:12:34;-0.30;99.90
1570;DHT22;778;50.120;8.698;2024-01-10T15:15:02;-0.30;99.90
1570;DHT22;778;50.120;8.698;2024-01-10T15:17:31;-0.40;99.90
1570;DHT22;778;50.120;8.698;2024-01-10T15:20:00;-0.40;99.90
1570;DHT22;778;50.120;8.698;2024-01-10T15:22:29;-0.40;99.90
1570;DHT22;778;50.120;8.698;2024-01-10T15:24:59;-0.50;99.90
1570;DHT22;778;50.120;8.698;2024-01-10T15:27:28;-0.50;99.90
1570;DHT22;778;50.120;8.698;2024-01-10T15:29:56;-0.50;99.90
1570;DHT22;778;50.120;8.698;2024-01-10T15:32:41;-0.60;99.90
1570;DHT22;778;50.120;8.698;2024-01-10T15:35:10;-0.60;99.90
1570;DHT22;778;50.120;8.698;2024-01-10T15:37:38;-0.60;99.90
1570;DHT22;778;50.120;8.698;2024-01-10T15:40:09;-0.60;99.90
1570;DHT22;778;50.120;8.698;2024-01-10T15:42:39;-0.60;99.90
1570;DHT22;778;50.120;8.698;2024-01-10T15:45:08;-0.70;99.90
1570;DHT22;778;50.120;8.698;2024-01-10T15:47:40;-0.70;99.90
1570;DHT22;778;50.120;8.698;2024-01-10T15:50:11;-0.70;99.90
1570;DHT22;778;50.120;8.698;2024-01-10T15:52:39;-0.80;99.90
1570;DHT22;778;50.120;8.698;2024-01-10T15:55:10;-0.80;99.90
1570;DHT22;778;50.120;8.698;2024-01-10T15:57:38;-0.80;99.90
1570;DHT22;778;50.120;8.698;2024-01-10T16:00:08;-0.90;99.90
1570;DHT22;778;50.120;8.698;2024-01-10T16:02:37;-0.90;99.90
1570;DHT22;778;50.120;8.698;2024-01-10T16:05:07;-0.90;99.90
1570;DHT22;778;50.120;8.698;2024-01-10T16:07:36;-0.90;99.90
1570;DHT22;778;50.120;8.698;2024-01-10T16:10:05;-1.00;99.90
1570;DHT22;778;50.120;8.698;2024-01-10T16:12:36;-1.00;99.90
1570;DHT22;778;50.120;8.698;2024-01-10T16:15:05;-1.00;99.90
1570;DHT22;778;50.120;8.698;2024-01-10T16:17:35;-1.00;99.90
1570;DHT22;778;50.120;8.698;2024-01-10T16:20:04;-1.00;99.90
1570;DHT22;778;50.120;8.698;2024-01-10T16:22:34;-1.10;99.90
1570;DHT22;778;50.120;8.698;2024-01-10T16:25:03;-1.10;99.90
1570;DHT22;778;50.120;8.698;2024-01-10T16:27:32;-1.20;99.90
1570;DHT22;778;50.120;8.698;2024-01-10T16:30:03;-1.20;99.90
1570;DHT22;778;50.120;8.698;2024-01-10T16:32:32;-1.20;99.90
1570;DHT22;778;50.120;8.698;2024-01-10T16:35:00;-1.30;99.90
1570;DHT22;778;50.120;8.698;2024-01-10T16:37:30;-1.30;99.90
1570;DHT22;778;50.120;8.698;2024-01-10T16:39:58;-1.30;99.90